Terminal Aerodrome Forecast
Issued by NWS Indianapolis, IN

Home | Current Version | Previous Version | Text Only | Print | Product List | Glossary On
Versions: 1 2 3 4 5 6 7 8 9 10 11 12 13 14 15 16 17 18 19 20 21 22 23 24 25 26 27 28
209
FTUS43 KIND 051120
TAFIND
TAF
KIND 051120Z 0512/0618 25006KT P6SM BKN009 OVC012
     FM051500 19005KT P6SM OVC010
     FM051900 14005KT P6SM BKN045
     FM052300 11006KT P6SM SCT150
     FM060800 09006KT P6SM BKN110
     FM061200 07004KT 5SM -RA OVC035=

USA.gov is the U.S. government's official web portal to all federal, state and local government web resources and services.